createdAt,value
2019-02-26T00:00:33.020Z,13.3
2019-02-26T00:01:10.066Z,13.2
2019-02-26T00:02:10.101Z,13.2
2019-02-26T00:03:10.427Z,13.2
2019-02-26T00:03:43.822Z,13.2
2019-02-26T00:04:42.769Z,13.2
2019-02-26T00:05:38.339Z,13.1
2019-02-26T00:06:11.983Z,13.1
2019-02-26T00:07:07.796Z,13.2
2019-02-26T00:08:07.896Z,13.2
2019-02-26T00:08:42.326Z,13.1
2019-02-26T00:09:42.895Z,13.1
2019-02-26T00:10:39.937Z,13.1
2019-02-26T00:11:18.208Z,13.1
2019-02-26T00:12:01.311Z,13.1
2019-02-26T00:12:51.379Z,13.1
2019-02-26T00:13:45.516Z,13.1
2019-02-26T00:14:38.153Z,13.1
2019-02-26T00:15:21.652Z,13.1
2019-02-26T00:16:27.178Z,13.1
2019-02-26T00:17:00.831Z,13.1
2019-02-26T00:17:58.993Z,13.1
2019-02-26T00:18:43.623Z,13.1
2019-02-26T00:19:31.066Z,13.1
2019-02-26T00:20:26.081Z,13
2019-02-26T00:21:13.494Z,13
2019-02-26T00:22:03.318Z,13
2019-02-26T00:22:57.539Z,13
2019-02-26T00:23:54.089Z,13
2019-02-26T00:24:50.151Z,13
2019-02-26T00:25:28.868Z,12.9
2019-02-26T00:26:25.763Z,13
2019-02-26T00:27:13.746Z,12.9
2019-02-26T00:28:03.378Z,12.9
2019-02-26T00:28:53.172Z,12.9
2019-02-26T00:29:39.562Z,12.9
2019-02-26T00:30:27.096Z,12.9
2019-02-26T00:31:14.886Z,12.9
2019-02-26T00:32:11.622Z,12.9
2019-02-26T00:33:02.671Z,12.9
2019-02-26T00:33:42.348Z,12.9
2019-02-26T00:34:43.820Z,12.9
2019-02-26T00:35:34.860Z,12.9
2019-02-26T00:36:21.517Z,12.9
2019-02-26T00:37:13.499Z,12.9
2019-02-26T00:38:03.485Z,12.9
2019-02-26T00:38:52.292Z,12.9
2019-02-26T00:39:39.870Z,12.9
2019-02-26T00:40:28.156Z,12.8
2019-02-26T00:41:15.409Z,12.8
2019-02-26T00:42:12.091Z,12.8
2019-02-26T00:43:11.989Z,12.8
2019-02-26T00:43:44.962Z,12.8
2019-02-26T00:44:44.362Z,12.8
2019-02-26T00:45:43.227Z,12.8
2019-02-26T00:46:17.979Z,12.8
2019-02-26T00:47:16.137Z,12.8
2019-02-26T00:47:55.654Z,12.8
2019-02-26T00:48:50.419Z,12.8
2019-02-26T00:49:37.551Z,12.7
2019-02-26T00:50:25.187Z,12.7
2019-02-26T00:51:13.730Z,12.7
2019-02-26T00:52:13.293Z,12.7
2019-02-26T00:53:06.137Z,12.7
2019-02-26T00:53:43.581Z,12.7
2019-02-26T00:54:44.511Z,12.6
2019-02-26T00:55:41.602Z,12.6
2019-02-26T00:56:18.950Z,12.6
2019-02-26T00:57:20.837Z,12.6
2019-02-26T00:58:03.236Z,12.6
2019-02-26T00:58:57.506Z,12.6
2019-02-26T00:59:44.001Z,12.6
2019-02-26T01:00:35.899Z,12.6
2019-02-26T01:01:29.673Z,12.6
2019-02-26T01:02:08.243Z,12.6
2019-02-26T01:02:53.738Z,12.6
2019-02-26T01:03:55.941Z,12.6
2019-02-26T01:04:34.941Z,12.6
2019-02-26T01:05:24.205Z,12.6
2019-02-26T01:06:17.631Z,12.5
2019-02-26T01:07:14.443Z,12.5
2019-02-26T01:08:02.241Z,12.5
2019-02-26T01:08:54.003Z,12.4
2019-02-26T01:09:40.863Z,12.5
2019-02-26T01:10:30.773Z,12.5
2019-02-26T01:11:15.611Z,12.5
2019-02-26T01:12:03.890Z,12.4
2019-02-26T01:12:56.384Z,12.4
2019-02-26T01:13:44.815Z,12.4
2019-02-26T01:14:34.343Z,12.4
2019-02-26T01:15:24.613Z,12.4
2019-02-26T01:16:14.410Z,12.4
2019-02-26T01:17:07.519Z,12.4
2019-02-26T01:18:06.185Z,12.4
2019-02-26T01:18:56.610Z,12.4
2019-02-26T01:19:45.923Z,12.4
2019-02-26T01:20:37.973Z,12.4
2019-02-26T01:21:15.286Z,12.4
2019-02-26T01:22:05.598Z,12.4
2019-02-26T01:22:55.151Z,12.4
2019-02-26T01:23:45.175Z,12.4
2019-02-26T01:24:40.207Z,12.3
2019-02-26T01:25:30.462Z,12.3
2019-02-26T01:26:19.385Z,12.3
2019-02-26T01:27:05.673Z,12.3
2019-02-26T01:28:07.292Z,12.3
2019-02-26T01:29:06.907Z,12.3
2019-02-26T01:29:40.516Z,12.3
2019-02-26T01:30:43.509Z,12.3
2019-02-26T01:31:15.707Z,12.3
2019-02-26T01:32:25.981Z,12.3
2019-02-26T01:33:09.670Z,12.3
2019-02-26T01:33:57.688Z,12.3
2019-02-26T01:34:35.309Z,12.3
2019-02-26T01:35:38.809Z,12.2
2019-02-26T01:36:28.297Z,12.2
2019-02-26T01:37:18.215Z,12.2
2019-02-26T01:38:07.107Z,12.2
2019-02-26T01:38:59.631Z,12.2
2019-02-26T01:39:55.406Z,12.2
2019-02-26T01:40:33.159Z,12.2
2019-02-26T01:41:33.026Z,12.1
2019-02-26T01:42:07.424Z,12.1
2019-02-26T01:43:12.517Z,12.1
2019-02-26T01:43:46.811Z,12.1
2019-02-26T01:44:50.579Z,12.1
2019-02-26T01:45:38.963Z,12.1
2019-02-26T01:46:26.239Z,12.1
2019-02-26T01:47:12.999Z,12.1
2019-02-26T01:48:00.628Z,12.1
2019-02-26T01:48:48.604Z,12.1
2019-02-26T01:49:39.676Z,12.1
2019-02-26T01:50:40.631Z,12.1
2019-02-26T01:51:28.773Z,12.1
2019-02-26T01:52:19.367Z,12
2019-02-26T01:53:08.578Z,12
2019-02-26T01:54:00.493Z,12
2019-02-26T01:54:47.016Z,12
2019-02-26T01:55:35.251Z,12
2019-02-26T01:56:22.411Z,12
2019-02-26T01:57:12.421Z,12
2019-02-26T01:58:02.410Z,11.9
2019-02-26T01:59:04.273Z,11.9
2019-02-26T01:59:42.418Z,11.9
2019-02-26T02:00:32.818Z,11.9
2019-02-26T02:01:33.446Z,11.9
2019-02-26T02:02:20.245Z,11.9
2019-02-26T02:02:59.433Z,11.9
2019-02-26T02:04:00.813Z,11.9
2019-02-26T02:04:50.369Z,11.9
2019-02-26T02:05:38.600Z,11.9
2019-02-26T02:06:26.323Z,11.9
2019-02-26T02:07:13.784Z,11.9
2019-02-26T02:08:03.863Z,11.9
2019-02-26T02:09:01.905Z,11.9
2019-02-26T02:09:39.196Z,11.9
2019-02-26T02:10:28.848Z,11.8
2019-02-26T02:11:23.366Z,11.8
2019-02-26T02:12:18.805Z,11.8
2019-02-26T02:13:17.687Z,11.8
2019-02-26T02:13:52.105Z,11.8
2019-02-26T02:14:39.952Z,11.8
2019-02-26T02:15:31.840Z,11.8
2019-02-26T02:16:18.692Z,11.8
2019-02-26T02:17:21.414Z,11.8
2019-02-26T02:18:10.364Z,11.8
2019-02-26T02:19:05.827Z,11.8
2019-02-26T02:19:42.015Z,11.8
2019-02-26T02:20:30.743Z,11.8
2019-02-26T02:21:19.554Z,11.8
2019-02-26T02:22:19.048Z,11.8
2019-02-26T02:23:11.400Z,11.8
2019-02-26T02:23:59.522Z,11.8
2019-02-26T02:24:59.047Z,11.7
2019-02-26T02:25:48.697Z,11.7
2019-02-26T02:26:23.886Z,11.7
2019-02-26T02:27:10.257Z,11.7
2019-02-26T02:28:11.496Z,11.7
2019-02-26T02:28:51.199Z,11.7
2019-02-26T02:29:57.751Z,11.7
2019-02-26T02:30:46.432Z,11.6
2019-02-26T02:31:27.953Z,11.6
2019-02-26T02:32:16.196Z,11.6
2019-02-26T02:33:10.454Z,11.6
2019-02-26T02:33:50.170Z,11.6
2019-02-26T02:34:50.530Z,11.6
2019-02-26T02:35:30.306Z,11.6
2019-02-26T02:36:34.034Z,11.6
2019-02-26T02:37:10.746Z,11.6
2019-02-26T02:38:12.927Z,11.6
2019-02-26T02:38:50.829Z,11.6
2019-02-26T02:39:40.566Z,11.6
2019-02-26T02:40:31.594Z,11.6
2019-02-26T02:41:21.013Z,11.6
2019-02-26T02:42:24.834Z,11.6
2019-02-26T02:43:24.836Z,11.6
2019-02-26T02:43:51.688Z,11.6
2019-02-26T02:44:55.287Z,11.6
2019-02-26T02:45:30.202Z,11.5
2019-02-26T02:46:21.082Z,11.5
2019-02-26T02:47:19.427Z,11.6
2019-02-26T02:48:20.438Z,11.5
2019-02-26T02:48:51.568Z,11.5
2019-02-26T02:49:52.348Z,11.5
2019-02-26T02:50:32.431Z,11.5
2019-02-26T02:51:22.031Z,11.5
2019-02-26T02:52:19.505Z,11.5
2019-02-26T02:53:11.644Z,11.5
2019-02-26T02:54:05.898Z,11.5
2019-02-26T02:54:55.616Z,11.4
2019-02-26T02:55:32.273Z,11.4
2019-02-26T02:56:25.777Z,11.4
2019-02-26T02:57:18.052Z,11.4
2019-02-26T02:58:08.015Z,11.4
2019-02-26T02:58:59.762Z,11.4
2019-02-26T02:59:49.883Z,11.4
2019-02-26T03:00:42.023Z,11.4
2019-02-26T03:01:36.022Z,11.4
2019-02-26T03:02:27.098Z,11.4
2019-02-26T03:03:06.118Z,11.4
2019-02-26T03:04:08.235Z,11.4
2019-02-26T03:04:42.758Z,11.4
2019-02-26T03:08:05.402Z,11.4
2019-02-26T03:09:01.033Z,11.4
2019-02-26T03:09:53.309Z,11.4
2019-02-26T03:10:51.532Z,11.4
2019-02-26T03:11:19.912Z,11.4
2019-02-26T03:12:10.267Z,11.4
2019-02-26T03:13:10.689Z,11.3
2019-02-26T03:14:01.354Z,11.3
2019-02-26T03:14:52.359Z,11.3
2019-02-26T03:15:43.792Z,11.3
2019-02-26T03:16:34.535Z,11.3
2019-02-26T03:17:25.821Z,11.3
2019-02-26T03:18:06.439Z,11.3
2019-02-26T03:18:50.792Z,11.3
2019-02-26T03:19:51.131Z,11.3
2019-02-26T03:20:47.467Z,11.3
2019-02-26T03:21:36.096Z,11.3
2019-02-26T03:22:26.199Z,11.3
2019-02-26T03:23:01.287Z,11.3
2019-02-26T03:23:54.930Z,11.3
2019-02-26T03:24:44.724Z,11.3
2019-02-26T03:25:37.676Z,11.3
2019-02-26T03:26:35.034Z,11.3
2019-02-26T03:27:11.547Z,11.3
2019-02-26T03:28:02.151Z,11.3
2019-02-26T03:29:01.689Z,11.3
2019-02-26T03:29:42.294Z,11.3
2019-02-26T03:30:52.690Z,11.2
2019-02-26T03:31:40.493Z,11.2
2019-02-26T03:32:12.832Z,11.3
2019-02-26T03:33:13.434Z,11.2
2019-02-26T03:34:14.433Z,11.2
2019-02-26T03:34:42.599Z,11.2
2019-02-26T03:35:32.788Z,11.2
2019-02-26T03:36:27.421Z,11.2
2019-02-26T03:37:18.895Z,11.2
2019-02-26T03:38:11.700Z,11.2
2019-02-26T03:39:10.283Z,11.2
2019-02-26T03:39:42.363Z,11.2
2019-02-26T03:40:43.643Z,11.2
2019-02-26T03:41:37.833Z,11.2
2019-02-26T03:42:25.803Z,11.2
2019-02-26T03:43:17.646Z,11.2
2019-02-26T03:43:57.288Z,11.2
2019-02-26T03:44:47.620Z,11.1
2019-02-26T03:45:34.325Z,11.2
2019-02-26T03:46:22.412Z,11.2
2019-02-26T03:47:12.203Z,11.1
2019-02-26T03:48:06.613Z,11.1
2019-02-26T03:48:52.353Z,11.1
2019-02-26T03:49:47.445Z,11.1
2019-02-26T03:50:35.240Z,11.1
2019-02-26T03:51:26.800Z,11.1
2019-02-26T03:52:17.932Z,11.1
2019-02-26T03:53:02.872Z,11.1
2019-02-26T03:53:53.115Z,11.1
2019-02-26T03:54:58.012Z,11.2
2019-02-26T03:55:47.105Z,11.1
2019-02-26T03:56:29.380Z,11.1
2019-02-26T03:57:29.839Z,11.1
2019-02-26T03:58:10.624Z,11.1
2019-02-26T03:59:16.250Z,11.1
2019-02-26T03:59:43.454Z,11.1
2019-02-26T04:00:50.149Z,11.1
2019-02-26T04:01:30.868Z,11.1
2019-02-26T04:02:29.876Z,11.1
2019-02-26T04:03:18.905Z,11.1
2019-02-26T04:03:54.495Z,11.1
2019-02-26T04:05:00.582Z,11.1
2019-02-26T04:05:34.422Z,11.1
2019-02-26T04:06:23.891Z,11.1
2019-02-26T04:07:18.632Z,11.1
2019-02-26T04:08:12.709Z,11.1
2019-02-26T04:09:04.343Z,11.1
2019-02-26T04:10:05.559Z,11.1
2019-02-26T04:10:35.059Z,11.1
2019-02-26T04:11:35.448Z,11.1
2019-02-26T04:12:28.016Z,11.2
2019-02-26T04:13:07.569Z,11.2
2019-02-26T04:14:04.620Z,11.2
2019-02-26T04:14:45.405Z,11.2
2019-02-26T04:15:45.283Z,11.2
2019-02-26T04:16:24.564Z,11.2
2019-02-26T04:17:17.839Z,11.2
2019-02-26T04:18:05.281Z,11.2
2019-02-26T04:19:00.121Z,11.2
2019-02-26T04:19:49.957Z,11.2
2019-02-26T04:20:37.593Z,11.2
2019-02-26T04:21:29.694Z,11.2
2019-02-26T04:22:31.305Z,11.2
2019-02-26T04:23:08.300Z,11.2
2019-02-26T04:23:54.973Z,11.2
2019-02-26T04:24:46.000Z,11.2
2019-02-26T04:25:44.124Z,11.3
2019-02-26T04:26:41.759Z,11.2
2019-02-26T04:27:16.240Z,11.3
2019-02-26T04:28:17.609Z,11.3
2019-02-26T04:28:59.240Z,11.3
2019-02-26T04:29:57.620Z,11.3
2019-02-26T04:30:58.019Z,11.3
2019-02-26T04:31:26.255Z,11.3
2019-02-26T04:32:30.045Z,11.3
2019-02-26T04:33:19.213Z,11.3
2019-02-26T04:34:12.265Z,11.3
2019-02-26T04:34:48.381Z,11.3
2019-02-26T04:35:36.783Z,11.3
2019-02-26T04:36:31.687Z,11.3
2019-02-26T04:37:20.930Z,11.3
2019-02-26T04:38:14.782Z,11.3
2019-02-26T04:39:03.748Z,11.3
2019-02-26T04:39:56.175Z,11.3
2019-02-26T04:40:48.755Z,11.4
2019-02-26T04:41:26.534Z,11.4
2019-02-26T04:42:27.607Z,11.4
2019-02-26T04:43:20.462Z,11.4
2019-02-26T04:44:12.295Z,11.4
2019-02-26T04:45:10.729Z,11.4
2019-02-26T04:45:37.437Z,11.4
2019-02-26T04:46:42.237Z,11.4
2019-02-26T04:47:26.887Z,11.4
2019-02-26T04:48:09.561Z,11.4
2019-02-26T04:48:56.559Z,11.4
2019-02-26T04:49:54.163Z,11.4
2019-02-26T04:50:51.857Z,11.4
2019-02-26T04:51:28.164Z,11.4
2019-02-26T04:52:26.568Z,11.4
2019-02-26T04:53:18.694Z,11.4
2019-02-26T04:54:08.878Z,11.5
2019-02-26T04:54:48.838Z,11.5
2019-02-26T04:55:52.279Z,11.5
2019-02-26T04:56:35.770Z,11.5
2019-02-26T04:57:17.752Z,11.5
2019-02-26T04:58:17.582Z,11.5
2019-02-26T04:58:58.172Z,11.5
2019-02-26T04:59:52.367Z,11.5
2019-02-26T05:00:47.204Z,11.6
2019-02-26T05:01:28.037Z,11.6
2019-02-26T05:02:18.096Z,11.5
2019-02-26T05:03:24.208Z,11.6
2019-02-26T05:03:57.916Z,11.6
2019-02-26T05:04:51.236Z,11.6
2019-02-26T05:05:45.659Z,11.6
2019-02-26T05:06:28.408Z,11.6
2019-02-26T05:07:27.704Z,11.6
2019-02-26T05:08:22.778Z,11.6
2019-02-26T05:09:14.404Z,11.6
2019-02-26T05:10:03.832Z,11.6
2019-02-26T05:10:42.497Z,11.6
2019-02-26T05:11:48.647Z,11.6
2019-02-26T05:12:19.127Z,11.6
2019-02-26T05:13:17.423Z,11.6
2019-02-26T05:13:59.196Z,11.6
2019-02-26T05:14:49.236Z,11.7
2019-02-26T05:15:45.306Z,11.7
2019-02-26T05:16:46.178Z,11.7
2019-02-26T05:17:33.958Z,11.7
2019-02-26T05:18:09.262Z,11.7
2019-02-26T05:19:06.425Z,11.7
2019-02-26T05:19:59.797Z,11.7
2019-02-26T05:20:55.844Z,11.8
2019-02-26T05:21:43.270Z,11.8
2019-02-26T05:22:33.980Z,11.8
2019-02-26T05:23:13.888Z,11.8
2019-02-26T05:24:09.787Z,11.8
2019-02-26T05:25:01.296Z,11.8
2019-02-26T05:25:52.065Z,11.8
2019-02-26T05:26:33.108Z,11.8
2019-02-26T05:27:33.036Z,11.8
2019-02-26T05:28:23.982Z,11.8
2019-02-26T05:29:00.547Z,11.8
2019-02-26T05:30:02.748Z,11.8
2019-02-26T05:30:53.709Z,11.8
2019-02-26T05:31:44.265Z,11.8
2019-02-26T05:32:29.963Z,11.8
2019-02-26T05:33:14.542Z,11.8
2019-02-26T05:34:08.618Z,11.9
2019-02-26T05:34:58.537Z,11.9
2019-02-26T05:35:54.867Z,11.9
2019-02-26T05:36:49.321Z,11.9
2019-02-26T05:37:23.019Z,11.9
2019-02-26T05:38:18.229Z,11.9
2019-02-26T05:39:09.544Z,11.9
2019-02-26T05:40:02.422Z,11.9
2019-02-26T05:41:01.474Z,11.9
2019-02-26T05:41:30.399Z,11.9
2019-02-26T05:42:20.859Z,11.9
2019-02-26T05:43:14.752Z,12
2019-02-26T05:44:17.707Z,12
2019-02-26T05:45:09.244Z,12
2019-02-26T05:45:44.185Z,12
2019-02-26T05:46:37.529Z,12
2019-02-26T05:47:33.754Z,12.1
2019-02-26T05:48:18.531Z,12.1
2019-02-26T05:49:06.568Z,12.1
2019-02-26T05:49:54.997Z,12.1
2019-02-26T05:50:53.188Z,12.1
2019-02-26T05:51:45.400Z,12.1
2019-02-26T05:52:36.623Z,12.1
2019-02-26T05:53:21.580Z,12.1
2019-02-26T05:54:26.445Z,12.1
2019-02-26T05:54:53.410Z,12.1
2019-02-26T05:55:57.198Z,12.1
2019-02-26T05:56:33.937Z,12.2
2019-02-26T05:57:41.725Z,12.2
2019-02-26T05:58:26.650Z,12.2
2019-02-26T05:59:24.677Z,12.2
2019-02-26T05:59:52.317Z,12.2
2019-02-26T06:00:42.672Z,12.2
2019-02-26T06:01:36.691Z,12.3
2019-02-26T06:02:32.628Z,12.3
2019-02-26T06:03:26.082Z,12.3
2019-02-26T06:06:08.704Z,12.3
2019-02-26T06:07:06.616Z,12.3
2019-02-26T06:07:47.229Z,12.3
2019-02-26T06:08:48.650Z,12.3
2019-02-26T06:09:35.773Z,12.3
2019-02-26T06:10:10.407Z,12.4
2019-02-26T06:11:00.739Z,12.4
2019-02-26T06:11:58.949Z,12.4
2019-02-26T06:12:54.226Z,12.4
2019-02-26T06:13:46.049Z,12.4
2019-02-26T06:14:24.506Z,12.4
2019-02-26T06:15:16.529Z,12.4
2019-02-26T06:16:14.955Z,12.4
2019-02-26T06:17:02.918Z,12.4
2019-02-26T06:18:01.291Z,12.5
2019-02-26T06:18:30.772Z,12.5
2019-02-26T06:19:26.041Z,12.5
2019-02-26T06:20:19.133Z,12.5
2019-02-26T06:21:09.014Z,12.5
2019-02-26T06:22:03.893Z,12.6
2019-02-26T06:22:44.294Z,12.6
2019-02-26T06:23:48.733Z,12.6
2019-02-26T06:24:40.666Z,12.6
2019-02-26T06:25:33.227Z,12.6
2019-02-26T06:26:38.094Z,12.6
2019-02-26T06:26:54.936Z,12.6
2019-02-26T06:27:45.409Z,12.6
2019-02-26T06:28:55.182Z,12.6
2019-02-26T06:29:43.675Z,12.6
2019-02-26T06:30:21.418Z,12.6
2019-02-26T06:31:05.807Z,12.7
2019-02-26T06:31:58.365Z,12.7
2019-02-26T06:32:53.585Z,12.7
2019-02-26T06:33:57.021Z,12.7
2019-02-26T06:34:30.733Z,12.7
2019-02-26T06:35:26.962Z,12.8
2019-02-26T06:36:13.880Z,12.7
2019-02-26T06:37:01.720Z,12.8
2019-02-26T06:37:48.234Z,12.8
2019-02-26T06:38:42.387Z,12.8
2019-02-26T06:39:42.745Z,12.8
2019-02-26T06:40:16.330Z,12.8
2019-02-26T06:41:05.933Z,12.8
2019-02-26T06:41:59.645Z,12.8
2019-02-26T06:42:48.835Z,12.8
2019-02-26T06:43:59.791Z,12.8
2019-02-26T06:44:26.642Z,12.9
2019-02-26T06:45:24.870Z,12.9
2019-02-26T06:46:20.460Z,12.9
2019-02-26T06:46:57.999Z,12.9
2019-02-26T06:47:59.154Z,12.9
2019-02-26T06:48:40.674Z,12.9
2019-02-26T06:49:36.795Z,12.9
2019-02-26T06:50:26.633Z,12.9
2019-02-26T06:51:15.352Z,12.9
2019-02-26T06:52:02.196Z,12.9
2019-02-26T06:52:57.692Z,12.9
2019-02-26T06:53:37.002Z,12.9
2019-02-26T06:54:39.350Z,13
2019-02-26T06:55:17.687Z,13
2019-02-26T06:56:09.612Z,13.1
2019-02-26T06:57:02.009Z,8.4
2019-02-26T06:58:02.056Z,24.8
2019-02-26T06:58:49.121Z,31.9
2019-02-26T06:59:38.819Z,32.6
2019-02-26T07:00:30.539Z,33
2019-02-26T07:01:16.589Z,33.1
2019-02-26T07:02:01.017Z,33.2
2019-02-26T07:02:52.469Z,33.2
2019-02-26T07:03:41.951Z,33
2019-02-26T07:06:06.821Z,32.3
2019-02-26T07:06:49.076Z,31.9
2019-02-26T07:07:40.706Z,31.6
2019-02-26T07:08:39.188Z,31.3
2019-02-26T07:09:29.263Z,30
2019-02-26T07:10:18.227Z,29.4
2019-02-26T07:11:00.990Z,29.1
2019-02-26T07:11:50.671Z,28.9
2019-02-26T07:12:53.523Z,28.7
2019-02-26T07:13:30.599Z,28.4
2019-02-26T07:14:24.814Z,28.3
2019-02-26T07:15:15.522Z,28.1
2019-02-26T07:16:05.629Z,27.9
2019-02-26T07:16:50.512Z,27.8
2019-02-26T07:17:53.368Z,27.6
2019-02-26T07:18:31.410Z,27.4
2019-02-26T07:19:31.186Z,27.3
2019-02-26T07:20:12.432Z,27.3
2019-02-26T07:21:08.558Z,27.3
2019-02-26T07:22:00.373Z,27.1
2019-02-26T07:22:54.033Z,27
2019-02-26T07:23:44.420Z,26.8
2019-02-26T07:24:33.783Z,26.7
2019-02-26T07:25:24.458Z,26.6
2019-02-26T07:26:02.197Z,26.4
2019-02-26T07:26:57.563Z,26.3
2019-02-26T07:27:47.057Z,26.2
2019-02-26T07:28:34.922Z,26
2019-02-26T07:29:26.302Z,25.9
2019-02-26T07:30:12.532Z,25.8
2019-02-26T07:31:13.652Z,25.8
2019-02-26T07:32:03.797Z,25.6
2019-02-26T07:32:54.702Z,25.5
2019-02-26T07:33:44.684Z,25.4
2019-02-26T07:34:34.187Z,25.3
2019-02-26T07:35:24.702Z,25.1
2019-02-26T07:36:12.457Z,25
2019-02-26T07:37:00.568Z,24.9
2019-02-26T07:37:48.829Z,24.8
2019-02-26T07:38:59.569Z,24.6
2019-02-26T07:39:31.334Z,24.4
2019-02-26T07:40:30.507Z,24.7
2019-02-26T07:41:13.824Z,24.9
2019-02-26T07:42:02.584Z,25.2
2019-02-26T07:42:56.655Z,25.7
2019-02-26T07:43:36.607Z,26.4
2019-02-26T07:44:36.476Z,27.1
2019-02-26T07:45:38.499Z,27.6
2019-02-26T07:46:03.554Z,27.8
2019-02-26T07:46:54.013Z,27.8
2019-02-26T07:48:00.963Z,27.6
2019-02-26T07:48:41.844Z,27.5
2019-02-26T07:49:25.342Z,27.4
2019-02-26T07:50:25.011Z,27.3
2019-02-26T07:51:03.383Z,27.1
2019-02-26T07:51:53.356Z,27
2019-02-26T07:52:43.672Z,26.9
2019-02-26T07:53:33.769Z,26.8
2019-02-26T07:54:23.506Z,26.6
2019-02-26T07:55:24.633Z,26.3
2019-02-26T07:56:15.688Z,25.9
2019-02-26T07:57:06.644Z,25.8
2019-02-26T07:57:56.863Z,25.6
2019-02-26T07:58:46.666Z,25.5
2019-02-26T07:59:53.605Z,25.4
2019-02-26T08:00:13.938Z,25.2
2019-02-26T08:01:04.150Z,25.1
2019-02-26T08:01:58.858Z,25
2019-02-26T08:02:46.651Z,24.9
2019-02-26T08:03:38.373Z,24.8
2019-02-26T08:04:26.863Z,24.6
2019-02-26T08:05:18.790Z,24.8
2019-02-26T08:06:19.173Z,25.1
2019-02-26T08:07:06.760Z,25.5
2019-02-26T08:07:57.583Z,26.1
2019-02-26T08:08:34.805Z,26.8
2019-02-26T08:09:31.643Z,27.3
2019-02-26T08:10:27.135Z,27.6
2019-02-26T08:11:04.682Z,27.6
2019-02-26T08:11:57.495Z,27.6
2019-02-26T08:12:51.177Z,27.5
2019-02-26T08:13:44.645Z,27.4
2019-02-26T08:14:33.090Z,27.3
2019-02-26T08:15:23.550Z,27.1
2019-02-26T08:16:13.480Z,27
2019-02-26T08:17:13.273Z,26.8
2019-02-26T08:18:06.830Z,26.7
2019-02-26T08:18:35.491Z,26.3
2019-02-26T08:19:31.277Z,26.1
2019-02-26T08:20:22.840Z,25.8
2019-02-26T08:21:13.490Z,25.7
2019-02-26T08:22:05.110Z,25.5
2019-02-26T08:22:45.485Z,25.4
2019-02-26T08:23:35.875Z,25.3
2019-02-26T08:24:32.569Z,25.1
2019-02-26T08:25:16.174Z,25
2019-02-26T08:26:11.229Z,24.9
2019-02-26T08:26:58.812Z,24.8
2019-02-26T08:27:49.240Z,24.6
2019-02-26T08:28:48.054Z,24.8
2019-02-26T08:29:38.872Z,25.1
2019-02-26T08:30:30.263Z,25.6
2019-02-26T08:31:23.103Z,26.2
2019-02-26T08:32:09.097Z,26.9
2019-02-26T08:33:10.166Z,27.6
2019-02-26T08:33:36.599Z,27.7
2019-02-26T08:34:26.499Z,27.7
2019-02-26T08:35:21.240Z,27.6
2019-02-26T08:36:06.621Z,27.5
2019-02-26T08:36:56.626Z,27.4
2019-02-26T08:37:46.777Z,27.3
2019-02-26T08:38:39.314Z,27.2
2019-02-26T08:39:26.051Z,27
2019-02-26T08:40:19.532Z,26.9
2019-02-26T08:41:06.986Z,26.8
2019-02-26T08:41:56.453Z,26.6
2019-02-26T08:42:47.109Z,26.3
2019-02-26T08:43:37.196Z,25.9
2019-02-26T08:44:28.494Z,25.6
2019-02-26T08:45:33.475Z,25.5
2019-02-26T08:46:18.863Z,25.3
2019-02-26T08:46:58.728Z,25.1
2019-02-26T08:47:45.898Z,25.1
2019-02-26T08:48:41.258Z,24.9
2019-02-26T08:49:30.751Z,24.8
2019-02-26T08:50:23.251Z,24.7
2019-02-26T08:51:28.333Z,24.6
2019-02-26T08:51:57.716Z,24.8
2019-02-26T08:53:01.906Z,24.9
2019-02-26T08:53:40.075Z,25.6
2019-02-26T08:54:42.635Z,26.1
2019-02-26T08:55:31.816Z,27
2019-02-26T08:56:14.413Z,27.6
2019-02-26T08:56:58.306Z,27.6
2019-02-26T08:57:53.834Z,27.6
2019-02-26T08:58:37.645Z,27.6
2019-02-26T08:59:28.548Z,27.4
2019-02-26T09:00:18.321Z,27.4
2019-02-26T09:01:08.011Z,27.3
2019-02-26T09:01:58.043Z,27.1
2019-02-26T09:03:03.965Z,26.9
2019-02-26T09:04:00.963Z,26.8
2019-02-26T09:04:34.687Z,26.6
2019-02-26T09:05:23.203Z,26.5
2019-02-26T09:06:24.273Z,26.4
2019-02-26T09:07:09.843Z,26.3
2019-02-26T09:07:58.037Z,26.1
2019-02-26T09:08:50.345Z,26
2019-02-26T09:09:40.645Z,25.9
2019-02-26T09:10:30.080Z,25.8
2019-02-26T09:11:21.062Z,25.6
2019-02-26T09:12:10.219Z,25.5
2019-02-26T09:12:59.973Z,25.2
2019-02-26T09:13:52.080Z,25.1
2019-02-26T09:14:42.730Z,25.2
2019-02-26T09:15:21.660Z,25.8
2019-02-26T09:16:15.774Z,26.2
2019-02-26T09:17:11.962Z,26.9
2019-02-26T09:17:51.520Z,27.6
2019-02-26T09:18:48.937Z,27.8
2019-02-26T09:19:44.179Z,27.8
2019-02-26T09:20:23.482Z,27.7
2019-02-26T09:21:24.874Z,27.6
2019-02-26T09:22:03.586Z,27.4
2019-02-26T09:23:08.529Z,27.3
2019-02-26T09:23:41.696Z,27.2
2019-02-26T09:24:29.639Z,27.1
2019-02-26T09:25:31.466Z,26.9
2019-02-26T09:26:15.681Z,26.8
2019-02-26T09:27:12.254Z,26.6
2019-02-26T09:27:52.186Z,26.5
2019-02-26T09:28:40.979Z,26.4
2019-02-26T09:29:36.628Z,26.3
2019-02-26T09:30:24.900Z,26.1
2019-02-26T09:31:21.416Z,26
2019-02-26T09:32:00.118Z,25.9
2019-02-26T09:32:55.936Z,25.8
2019-02-26T09:33:52.792Z,25.6
2019-02-26T09:34:46.483Z,25.5
2019-02-26T09:35:37.495Z,25.1
2019-02-26T09:36:31.391Z,25.1
2019-02-26T09:37:15.021Z,25.6
2019-02-26T09:38:07.968Z,26.1
2019-02-26T09:38:52.926Z,26.8
2019-02-26T09:39:42.621Z,27.4
2019-02-26T09:40:39.146Z,27.7
2019-02-26T09:41:21.885Z,27.7
2019-02-26T09:42:13.261Z,27.6
2019-02-26T09:43:09.364Z,27.6
2019-02-26T09:43:53.348Z,27.4
2019-02-26T09:44:43.383Z,27.3
2019-02-26T09:45:35.942Z,27.2
2019-02-26T09:46:26.300Z,27
2019-02-26T09:47:13.493Z,26.9
2019-02-26T09:48:06.751Z,26.8
2019-02-26T09:48:53.622Z,26.6
2019-02-26T09:49:42.830Z,26.5
2019-02-26T09:50:30.880Z,26.3
2019-02-26T09:51:23.330Z,26.3
2019-02-26T09:52:13.938Z,26.1
2019-02-26T09:53:05.355Z,26
2019-02-26T09:53:41.623Z,25.9
2019-02-26T09:54:32.324Z,25.8
2019-02-26T09:55:22.245Z,25.6
2019-02-26T09:56:11.510Z,25.5
2019-02-26T09:57:01.290Z,25.1
2019-02-26T09:57:51.140Z,25
2019-02-26T09:58:55.867Z,25.3
2019-02-26T09:59:44.282Z,26
2019-02-26T10:00:36.818Z,26.6
2019-02-26T10:01:23.402Z,27.4
2019-02-26T10:02:13.310Z,27.7
2019-02-26T10:02:59.974Z,27.8
2019-02-26T10:03:49.800Z,27.7
2019-02-26T10:04:36.968Z,27.6
2019-02-26T10:07:04.177Z,27.3
2019-02-26T10:07:54.833Z,27.1
2019-02-26T10:08:38.722Z,27
2019-02-26T10:09:29.900Z,26.9
2019-02-26T10:10:22.489Z,26.8
2019-02-26T10:11:13.397Z,26.6
2019-02-26T10:12:04.960Z,26.4
2019-02-26T10:13:02.650Z,26.3
2019-02-26T10:13:52.758Z,26.2
2019-02-26T10:14:42.739Z,26.1
2019-02-26T10:15:19.167Z,25.9
2019-02-26T10:16:16.666Z,25.8
2019-02-26T10:17:05.222Z,25.7
2019-02-26T10:17:53.442Z,25.6
2019-02-26T10:18:41.499Z,25.2
2019-02-26T10:19:40.976Z,25
2019-02-26T10:20:35.144Z,25.2
2019-02-26T10:21:25.053Z,25.8
2019-02-26T10:22:18.204Z,26.4
2019-02-26T10:23:05.665Z,27.2
2019-02-26T10:23:41.458Z,27.6
2019-02-26T10:24:47.301Z,27.8
2019-02-26T10:25:41.433Z,27.7
2019-02-26T10:26:18.971Z,27.6
2019-02-26T10:27:20.743Z,27.5
2019-02-26T10:27:56.111Z,27.4
2019-02-26T10:29:13.981Z,27.3
2019-02-26T10:29:42.657Z,27.1
2019-02-26T10:30:25.476Z,27
2019-02-26T10:31:18.568Z,26.9
2019-02-26T10:32:04.954Z,26.8
2019-02-26T10:32:56.172Z,26.6
2019-02-26T10:33:57.690Z,26.5
2019-02-26T10:34:38.865Z,26.3
2019-02-26T10:35:55.415Z,26.2
2019-02-26T10:36:24.965Z,26
2019-02-26T10:37:02.299Z,25.9
2019-02-26T10:37:53.087Z,25.8
2019-02-26T10:38:47.469Z,25.8
2019-02-26T10:39:38.953Z,25.6
2019-02-26T10:41:05.782Z,25.2
2019-02-26T10:41:16.374Z,25
2019-02-26T10:42:12.721Z,25.1
2019-02-26T10:42:55.951Z,25.6
2019-02-26T10:43:49.540Z,26.1
2019-02-26T10:44:37.565Z,26.8
2019-02-26T10:45:25.422Z,27.5
2019-02-26T10:46:16.587Z,27.8
2019-02-26T10:47:17.834Z,27.7
2019-02-26T10:48:08.944Z,27.6
2019-02-26T10:48:58.467Z,27.5
2019-02-26T10:49:38.035Z,27.4
2019-02-26T10:50:55.544Z,27.3
2019-02-26T10:51:28.806Z,27.1
2019-02-26T10:52:07.834Z,27
2019-02-26T10:53:27.597Z,26.9
2019-02-26T10:53:47.832Z,26.7
2019-02-26T10:54:54.128Z,26.6
2019-02-26T10:55:49.729Z,26.5
2019-02-26T10:56:17.254Z,26.3
2019-02-26T10:57:22.833Z,26.3
2019-02-26T10:58:17.979Z,26.1
2019-02-26T10:58:46.987Z,25.9
2019-02-26T10:59:37.941Z,25.9
2019-02-26T11:00:44.079Z,25.8
2019-02-26T11:01:36.025Z,25.6
2019-02-26T11:02:11.936Z,25.3
2019-02-26T11:03:03.737Z,24.9
2019-02-26T11:04:05.357Z,25.1
2019-02-26T11:05:02.861Z,25.6
2019-02-26T11:05:42.379Z,26.3
2019-02-26T11:06:29.975Z,26.9
2019-02-26T11:07:22.651Z,27.6
2019-02-26T11:09:41.293Z,27.8
2019-02-26T11:10:34.513Z,27.6
2019-02-26T11:11:27.570Z,27.5
2019-02-26T11:12:17.507Z,27.4
2019-02-26T11:13:08.572Z,27.3
2019-02-26T11:14:01.776Z,27.1
2019-02-26T11:14:52.095Z,27
2019-02-26T11:15:43.758Z,26.9
2019-02-26T11:16:43.953Z,26.8
2019-02-26T11:17:09.061Z,26.6
2019-02-26T11:18:04.840Z,26.5